sensor_id;sensor_type;location;lat;lon;timestamp;temperature;humidity
29237;DHT22;16266;50.866;4.398;2023-05-14T00:01:41;12.80;99.90
29237;DHT22;16266;50.866;4.398;2023-05-14T00:04:06;12.90;99.90
29237;DHT22;16266;50.866;4.398;2023-05-14T00:06:32;12.90;99.90
29237;DHT22;16266;50.866;4.398;2023-05-14T00:08:58;12.90;99.90
29237;DHT22;16266;50.866;4.398;2023-05-14T00:11:23;12.90;99.90
29237;DHT22;16266;50.866;4.398;2023-05-14T00:13:49;13.00;99.90
29237;DHT22;16266;50.866;4.398;2023-05-14T00:16:15;13.10;99.90
29237;DHT22;16266;50.866;4.398;2023-05-14T00:18:41;13.00;99.90
29237;DHT22;16266;50.866;4.398;2023-05-14T00:21:06;13.00;99.90
29237;DHT22;16266;50.866;4.398;2023-05-14T00:23:32;13.00;99.90
29237;DHT22;16266;50.866;4.398;2023-05-14T00:25:58;13.00;99.90
29237;DHT22;16266;50.866;4.398;2023-05-14T00:28:23;12.90;99.90
29237;DHT22;16266;50.866;4.398;2023-05-14T00:30:49;12.90;99.90
29237;DHT22;16266;50.866;4.398;2023-05-14T00:33:15;12.90;99.90
29237;DHT22;16266;50.866;4.398;2023-05-14T00:35:41;12.90;99.90
29237;DHT22;16266;50.866;4.398;2023-05-14T00:38:06;12.90;99.90
29237;DHT22;16266;50.866;4.398;2023-05-14T00:40:32;12.90;99.90
29237;DHT22;16266;50.866;4.398;2023-05-14T00:42:58;13.00;99.90
29237;DHT22;16266;50.866;4.398;2023-05-14T00:45:24;13.00;99.90
29237;DHT22;16266;50.866;4.398;2023-05-14T00:47:50;13.10;99.90
29237;DHT22;16266;50.866;4.398;2023-05-14T00:50:17;13.10;99.90
29237;DHT22;16266;50.866;4.398;2023-05-14T00:52:43;13.00;99.90
29237;DHT22;16266;50.866;4.398;2023-05-14T00:55:09;13.10;99.90
29237;DHT22;16266;50.866;4.398;2023-05-14T00:57:37;13.10;99.90
29237;DHT22;16266;50.866;4.398;2023-05-14T01:00:04;13.10;99.90
29237;DHT22;16266;50.866;4.398;2023-05-14T01:02:30;13.10;99.90
29237;DHT22;16266;50.866;4.398;2023-05-14T01:04:56;13.10;99.90
29237;DHT22;16266;50.866;4.398;2023-05-14T01:07:29;13.10;99.90
29237;DHT22;16266;50.866;4.398;2023-05-14T01:10:31;13.10;99.90
29237;DHT22;16266;50.866;4.398;2023-05-14T01:13:18;13.10;99.90
29237;DHT22;16266;50.866;4.398;2023-05-14T01:15:48;13.10;99.90
29237;DHT22;16266;50.866;4.398;2023-05-14T01:18:17;13.20;99.90
29237;DHT22;16266;50.866;4.398;2023-05-14T01:20:44;13.30;99.90
29237;DHT22;16266;50.866;4.398;2023-05-14T01:23:10;13.30;99.90
29237;DHT22;16266;50.866;4.398;2023-05-14T01:25:36;13.30;99.90
29237;DHT22;16266;50.866;4.398;2023-05-14T01:28:27;13.20;99.90
29237;DHT22;16266;50.866;4.398;2023-05-14T01:31:05;13.20;99.90
29237;DHT22;16266;50.866;4.398;2023-05-14T01:33:35;13.20;99.90
29237;DHT22;16266;50.866;4.398;2023-05-14T01:36:02;13.10;99.90
29237;DHT22;16266;50.866;4.398;2023-05-14T01:38:28;13.00;99.90
29237;DHT22;16266;50.866;4.398;2023-05-14T01:40:56;13.00;99.90
29237;DHT22;16266;50.866;4.398;2023-05-14T01:43:23;13.00;99.90
29237;DHT22;16266;50.866;4.398;2023-05-14T01:45:48;13.10;99.90
29237;DHT22;16266;50.866;4.398;2023-05-14T01:48:14;13.00;99.90
29237;DHT22;16266;50.866;4.398;2023-05-14T01:50:40;13.10;99.90
29237;DHT22;16266;50.866;4.398;2023-05-14T01:53:06;13.10;99.90
29237;DHT22;16266;50.866;4.398;2023-05-14T01:55:31;13.10;99.90
29237;DHT22;16266;50.866;4.398;2023-05-14T01:57:57;13.20;99.90
29237;DHT22;16266;50.866;4.398;2023-05-14T02:00:23;13.10;99.90
29237;DHT22;16266;50.866;4.398;2023-05-14T02:02:51;13.20;99.90
29237;DHT22;16266;50.866;4.398;2023-05-14T02:05:17;13.30;99.90
29237;DHT22;16266;50.866;4.398;2023-05-14T02:07:43;13.30;99.90
29237;DHT22;16266;50.866;4.398;2023-05-14T02:10:09;13.40;99.90
29237;DHT22;16266;50.866;4.398;2023-05-14T02:12:35;13.40;99.90
29237;DHT22;16266;50.866;4.398;2023-05-14T02:15:02;13.40;99.90
29237;DHT22;16266;50.866;4.398;2023-05-14T02:17:28;13.40;99.90
29237;DHT22;16266;50.866;4.398;2023-05-14T02:19:53;13.40;99.90
29237;DHT22;16266;50.866;4.398;2023-05-14T02:22:19;13.40;99.90
29237;DHT22;16266;50.866;4.398;2023-05-14T02:24:46;13.30;99.90
29237;DHT22;16266;50.866;4.398;2023-05-14T02:27:11;13.30;99.90
29237;DHT22;16266;50.866;4.398;2023-05-14T02:29:38;13.20;99.90
29237;DHT22;16266;50.866;4.398;2023-05-14T02:32:04;13.30;99.90
29237;DHT22;16266;50.866;4.398;2023-05-14T02:34:30;13.20;99.90
29237;DHT22;16266;50.866;4.398;2023-05-14T02:36:58;13.30;99.90
29237;DHT22;16266;50.866;4.398;2023-05-14T02:39:23;13.30;99.90
29237;DHT22;16266;50.866;4.398;2023-05-14T02:41:49;13.30;99.90
29237;DHT22;16266;50.866;4.398;2023-05-14T02:44:15;13.20;99.90
29237;DHT22;16266;50.866;4.398;2023-05-14T02:46:42;13.30;99.90
29237;DHT22;16266;50.866;4.398;2023-05-14T02:49:07;13.30;99.90
29237;DHT22;16266;50.866;4.398;2023-05-14T02:51:33;13.20;99.90
29237;DHT22;16266;50.866;4.398;2023-05-14T02:53:59;13.10;99.90
29237;DHT22;16266;50.866;4.398;2023-05-14T02:56:24;13.10;99.90
29237;DHT22;16266;50.866;4.398;2023-05-14T02:58:51;13.20;99.90
29237;DHT22;16266;50.866;4.398;2023-05-14T03:01:16;13.10;99.90
29237;DHT22;16266;50.866;4.398;2023-05-14T03:03:43;13.10;99.90
29237;DHT22;16266;50.866;4.398;2023-05-14T03:06:12;13.10;99.90
29237;DHT22;16266;50.866;4.398;2023-05-14T03:08:41;13.20;99.90
29237;DHT22;16266;50.866;4.398;2023-05-14T03:11:10;13.20;99.90
29237;DHT22;16266;50.866;4.398;2023-05-14T03:13:36;13.10;99.90
29237;DHT22;16266;50.866;4.398;2023-05-14T03:16:01;13.10;99.90
29237;DHT22;16266;50.866;4.398;2023-05-14T03:18:27;13.10;99.90
29237;DHT22;16266;50.866;4.398;2023-05-14T03:20:55;13.10;99.90
29237;DHT22;16266;50.866;4.398;2023-05-14T03:23:21;13.20;99.90
29237;DHT22;16266;50.866;4.398;2023-05-14T03:25:46;13.30;99.90
29237;DHT22;16266;50.866;4.398;2023-05-14T03:28:12;13.30;99.90
29237;DHT22;16266;50.866;4.398;2023-05-14T03:30:38;13.30;99.90
29237;DHT22;16266;50.866;4.398;2023-05-14T03:33:03;13.30;99.90
29237;DHT22;16266;50.866;4.398;2023-05-14T03:35:29;13.40;99.90
29237;DHT22;16266;50.866;4.398;2023-05-14T03:41:11;13.40;99.90
29237;DHT22;16266;50.866;4.398;2023-05-14T03:43:37;13.30;99.90
29237;DHT22;16266;50.866;4.398;2023-05-14T03:46:03;13.40;99.90
29237;DHT22;16266;50.866;4.398;2023-05-14T03:48:28;13.50;99.90
29237;DHT22;16266;50.866;4.398;2023-05-14T03:50:54;13.50;99.90
29237;DHT22;16266;50.866;4.398;2023-05-14T03:53:20;13.60;99.90
29237;DHT22;16266;50.866;4.398;2023-05-14T03:55:45;13.60;99.90
29237;DHT22;16266;50.866;4.398;2023-05-14T03:58:12;13.70;99.90
29237;DHT22;16266;50.866;4.398;2023-05-14T04:00:41;13.70;99.90
29237;DHT22;16266;50.866;4.398;2023-05-14T04:03:07;13.70;99.90
29237;DHT22;16266;50.866;4.398;2023-05-14T04:05:34;13.70;99.90
29237;DHT22;16266;50.866;4.398;2023-05-14T04:08:00;13.70;99.90
29237;DHT22;16266;50.866;4.398;2023-05-14T04:10:26;13.80;99.90
29237;DHT22;16266;50.866;4.398;2023-05-14T04:12:52;13.80;99.90
29237;DHT22;16266;50.866;4.398;2023-05-14T04:15:17;13.70;99.90
29237;DHT22;16266;50.866;4.398;2023-05-14T04:17:43;13.60;99.90
29237;DHT22;16266;50.866;4.398;2023-05-14T04:20:09;13.60;99.90
29237;DHT22;16266;50.866;4.398;2023-05-14T04:22:35;13.50;99.90
29237;DHT22;16266;50.866;4.398;2023-05-14T04:25:00;13.50;99.90
29237;DHT22;16266;50.866;4.398;2023-05-14T04:27:27;13.40;99.90
29237;DHT22;16266;50.866;4.398;2023-05-14T04:29:53;13.40;99.90
29237;DHT22;16266;50.866;4.398;2023-05-14T04:32:19;13.50;99.90
29237;DHT22;16266;50.866;4.398;2023-05-14T04:34:44;13.50;99.90
29237;DHT22;16266;50.866;4.398;2023-05-14T04:37:12;13.60;99.90
29237;DHT22;16266;50.866;4.398;2023-05-14T04:39:37;13.70;99.90
29237;DHT22;16266;50.866;4.398;2023-05-14T04:42:03;13.70;99.90
29237;DHT22;16266;50.866;4.398;2023-05-14T04:44:29;13.60;99.90
29237;DHT22;16266;50.866;4.398;2023-05-14T04:46:55;13.70;99.90
29237;DHT22;16266;50.866;4.398;2023-05-14T04:49:21;13.70;99.90
29237;DHT22;16266;50.866;4.398;2023-05-14T04:51:47;13.80;99.90
29237;DHT22;16266;50.866;4.398;2023-05-14T04:54:12;13.70;99.90
29237;DHT22;16266;50.866;4.398;2023-05-14T04:56:38;13.80;99.90
29237;DHT22;16266;50.866;4.398;2023-05-14T04:59:04;13.70;99.90
29237;DHT22;16266;50.866;4.398;2023-05-14T05:01:29;13.80;99.90
29237;DHT22;16266;50.866;4.398;2023-05-14T05:03:55;13.70;99.90
29237;DHT22;16266;50.866;4.398;2023-05-14T05:06:22;13.70;99.90
29237;DHT22;16266;50.866;4.398;2023-05-14T05:08:48;13.80;99.90
29237;DHT22;16266;50.866;4.398;2023-05-14T05:11:13;13.90;99.90
29237;DHT22;16266;50.866;4.398;2023-05-14T05:13:40;14.00;99.90
29237;DHT22;16266;50.866;4.398;2023-05-14T05:16:06;14.00;99.90
29237;DHT22;16266;50.866;4.398;2023-05-14T05:18:31;14.10;99.90
29237;DHT22;16266;50.866;4.398;2023-05-14T05:20:58;14.20;99.90
29237;DHT22;16266;50.866;4.398;2023-05-14T05:23:24;14.30;99.90
29237;DHT22;16266;50.866;4.398;2023-05-14T05:25:49;14.40;99.90
29237;DHT22;16266;50.866;4.398;2023-05-14T05:28:15;14.50;99.90
29237;DHT22;16266;50.866;4.398;2023-05-14T05:30:41;14.70;99.90
29237;DHT22;16266;50.866;4.398;2023-05-14T05:33:09;14.70;99.90
29237;DHT22;16266;50.866;4.398;2023-05-14T05:35:36;14.70;99.90
29237;DHT22;16266;50.866;4.398;2023-05-14T05:38:01;14.90;99.90
29237;DHT22;16266;50.866;4.398;2023-05-14T05:40:27;15.00;99.90
29237;DHT22;16266;50.866;4.398;2023-05-14T05:42:53;15.20;99.90
29237;DHT22;16266;50.866;4.398;2023-05-14T05:45:19;15.20;99.90
29237;DHT22;16266;50.866;4.398;2023-05-14T05:47:44;15.20;99.90
29237;DHT22;16266;50.866;4.398;2023-05-14T05:50:10;15.00;99.90
29237;DHT22;16266;50.866;4.398;2023-05-14T05:52:36;14.80;99.90
29237;DHT22;16266;50.866;4.398;2023-05-14T05:55:02;14.80;99.90
29237;DHT22;16266;50.866;4.398;2023-05-14T05:57:28;14.70;99.90
29237;DHT22;16266;50.866;4.398;2023-05-14T05:59:54;14.70;99.90
29237;DHT22;16266;50.866;4.398;2023-05-14T06:02:19;14.70;99.90
29237;DHT22;16266;50.866;4.398;2023-05-14T06:04:45;14.90;99.90
29237;DHT22;16266;50.866;4.398;2023-05-14T06:07:11;14.90;99.90
29237;DHT22;16266;50.866;4.398;2023-05-14T06:09:37;15.00;99.90
29237;DHT22;16266;50.866;4.398;2023-05-14T06:12:03;14.70;99.90
29237;DHT22;16266;50.866;4.398;2023-05-14T06:14:29;14.70;99.90
29237;DHT22;16266;50.866;4.398;2023-05-14T06:16:54;14.60;99.90
29237;DHT22;16266;50.866;4.398;2023-05-14T06:19:21;14.60;99.90
29237;DHT22;16266;50.866;4.398;2023-05-14T06:21:47;14.70;99.90
29237;DHT22;16266;50.866;4.398;2023-05-14T06:24:13;15.00;99.90
29237;DHT22;16266;50.866;4.398;2023-05-14T06:26:38;14.90;99.90
29237;DHT22;16266;50.866;4.398;2023-05-14T06:29:04;15.00;99.90
29237;DHT22;16266;50.866;4.398;2023-05-14T06:31:30;15.40;99.90
29237;DHT22;16266;50.866;4.398;2023-05-14T06:33:55;15.50;99.90
29237;DHT22;16266;50.866;4.398;2023-05-14T06:36:21;15.50;99.90
29237;DHT22;16266;50.866;4.398;2023-05-14T06:38:46;15.60;99.90
29237;DHT22;16266;50.866;4.398;2023-05-14T06:41:12;15.50;99.90
29237;DHT22;16266;50.866;4.398;2023-05-14T06:43:38;15.40;99.90
29237;DHT22;16266;50.866;4.398;2023-05-14T06:46:03;15.30;99.90
29237;DHT22;16266;50.866;4.398;2023-05-14T06:48:30;15.40;99.90
29237;DHT22;16266;50.866;4.398;2023-05-14T06:50:55;15.20;99.90
29237;DHT22;16266;50.866;4.398;2023-05-14T06:53:21;15.10;99.90
29237;DHT22;16266;50.866;4.398;2023-05-14T06:55:47;15.10;99.90
29237;DHT22;16266;50.866;4.398;2023-05-14T06:58:13;15.40;99.90
29237;DHT22;16266;50.866;4.398;2023-05-14T07:00:39;15.50;99.90
29237;DHT22;16266;50.866;4.398;2023-05-14T07:03:04;15.40;99.90
29237;DHT22;16266;50.866;4.398;2023-05-14T07:05:30;15.30;99.90
29237;DHT22;16266;50.866;4.398;2023-05-14T07:07:56;15.30;99.90
29237;DHT22;16266;50.866;4.398;2023-05-14T07:10:22;15.40;99.90
29237;DHT22;16266;50.866;4.398;2023-05-14T07:12:48;15.40;99.90
29237;DHT22;16266;50.866;4.398;2023-05-14T07:15:14;15.70;99.90
29237;DHT22;16266;50.866;4.398;2023-05-14T07:17:40;15.80;99.90
29237;DHT22;16266;50.866;4.398;2023-05-14T07:20:06;15.80;99.90
29237;DHT22;16266;50.866;4.398;2023-05-14T07:22:32;15.90;99.90
29237;DHT22;16266;50.866;4.398;2023-05-14T07:24:58;16.00;99.90
29237;DHT22;16266;50.866;4.398;2023-05-14T07:27:25;16.10;99.90
29237;DHT22;16266;50.866;4.398;2023-05-14T07:29:51;16.30;99.90
29237;DHT22;16266;50.866;4.398;2023-05-14T07:32:16;16.10;99.90
29237;DHT22;16266;50.866;4.398;2023-05-14T07:34:42;16.00;99.90
29237;DHT22;16266;50.866;4.398;2023-05-14T07:37:07;16.00;99.90
29237;DHT22;16266;50.866;4.398;2023-05-14T07:39:33;16.10;99.90
29237;DHT22;16266;50.866;4.398;2023-05-14T07:42:00;16.20;99.90
29237;DHT22;16266;50.866;4.398;2023-05-14T07:44:25;16.10;99.90
29237;DHT22;16266;50.866;4.398;2023-05-14T07:46:51;16.10;99.90
29237;DHT22;16266;50.866;4.398;2023-05-14T07:49:17;15.70;99.90
29237;DHT22;16266;50.866;4.398;2023-05-14T07:51:42;15.70;99.90
29237;DHT22;16266;50.866;4.398;2023-05-14T07:54:08;15.90;99.90
29237;DHT22;16266;50.866;4.398;2023-05-14T07:56:34;16.10;99.90
29237;DHT22;16266;50.866;4.398;2023-05-14T07:58:59;16.30;99.90
29237;DHT22;16266;50.866;4.398;2023-05-14T08:01:25;16.70;99.90
29237;DHT22;16266;50.866;4.398;2023-05-14T08:03:51;16.80;99.90
29237;DHT22;16266;50.866;4.398;2023-05-14T08:06:17;17.00;99.90
29237;DHT22;16266;50.866;4.398;2023-05-14T08:08:42;17.30;99.90
29237;DHT22;16266;50.866;4.398;2023-05-14T08:11:08;17.60;99.90
29237;DHT22;16266;50.866;4.398;2023-05-14T08:13:34;17.90;99.90
29237;DHT22;16266;50.866;4.398;2023-05-14T08:15:59;17.80;99.90
29237;DHT22;16266;50.866;4.398;2023-05-14T08:18:25;18.10;99.90
29237;DHT22;16266;50.866;4.398;2023-05-14T08:20:51;18.20;99.90
29237;DHT22;16266;50.866;4.398;2023-05-14T08:23:17;18.30;99.90
29237;DHT22;16266;50.866;4.398;2023-05-14T08:25:43;18.40;99.90
29237;DHT22;16266;50.866;4.398;2023-05-14T08:28:08;18.40;99.90
29237;DHT22;16266;50.866;4.398;2023-05-14T08:30:34;18.10;99.90
29237;DHT22;16266;50.866;4.398;2023-05-14T08:33:00;18.30;99.90
29237;DHT22;16266;50.866;4.398;2023-05-14T08:35:25;18.40;99.90
29237;DHT22;16266;50.866;4.398;2023-05-14T08:37:51;18.50;99.90
29237;DHT22;16266;50.866;4.398;2023-05-14T08:40:17;18.50;99.90
29237;DHT22;16266;50.866;4.398;2023-05-14T08:42:43;18.90;99.90
29237;DHT22;16266;50.866;4.398;2023-05-14T08:45:17;19.20;99.90
29237;DHT22;16266;50.866;4.398;2023-05-14T08:47:47;19.10;99.90
29237;DHT22;16266;50.866;4.398;2023-05-14T08:50:14;18.60;99.90
29237;DHT22;16266;50.866;4.398;2023-05-14T08:52:40;18.00;99.90
29237;DHT22;16266;50.866;4.398;2023-05-14T08:55:06;17.40;99.90
29237;DHT22;16266;50.866;4.398;2023-05-14T08:57:33;17.60;99.90
29237;DHT22;16266;50.866;4.398;2023-05-14T08:59:59;17.50;99.90
29237;DHT22;16266;50.866;4.398;2023-05-14T09:02:30;17.60;99.90
29237;DHT22;16266;50.866;4.398;2023-05-14T09:05:00;17.70;99.90
29237;DHT22;16266;50.866;4.398;2023-05-14T09:07:26;17.60;99.90
29237;DHT22;16266;50.866;4.398;2023-05-14T09:09:52;16.90;99.90
29237;DHT22;16266;50.866;4.398;2023-05-14T09:12:19;16.70;99.90
29237;DHT22;16266;50.866;4.398;2023-05-14T09:14:45;16.80;99.90
29237;DHT22;16266;50.866;4.398;2023-05-14T09:17:11;16.60;99.90
29237;DHT22;16266;50.866;4.398;2023-05-14T09:19:41;16.80;99.90
29237;DHT22;16266;50.866;4.398;2023-05-14T09:22:10;18.10;99.90
29237;DHT22;16266;50.866;4.398;2023-05-14T09:24:36;19.30;99.90
29237;DHT22;16266;50.866;4.398;2023-05-14T09:27:04;20.20;99.90
29237;DHT22;16266;50.866;4.398;2023-05-14T09:29:31;21.80;99.90
29237;DHT22;16266;50.866;4.398;2023-05-14T09:31:57;23.10;99.90
29237;DHT22;16266;50.866;4.398;2023-05-14T09:34:26;24.10;99.90
29237;DHT22;16266;50.866;4.398;2023-05-14T09:37:02;24.70;99.90
29237;DHT22;16266;50.866;4.398;2023-05-14T09:39:29;25.10;99.90
29237;DHT22;16266;50.866;4.398;2023-05-14T09:41:55;24.00;99.90
29237;DHT22;16266;50.866;4.398;2023-05-14T09:44:22;23.40;99.90
29237;DHT22;16266;50.866;4.398;2023-05-14T09:46:48;24.80;99.90
29237;DHT22;16266;50.866;4.398;2023-05-14T09:49:15;25.60;99.90
29237;DHT22;16266;50.866;4.398;2023-05-14T09:51:40;25.80;99.90
29237;DHT22;16266;50.866;4.398;2023-05-14T09:54:07;27.30;99.90
29237;DHT22;16266;50.866;4.398;2023-05-14T09:56:34;29.60;98.00
29237;DHT22;16266;50.866;4.398;2023-05-14T09:59:00;31.60;92.60
29237;DHT22;16266;50.866;4.398;2023-05-14T10:01:27;30.90;84.00
29237;DHT22;16266;50.866;4.398;2023-05-14T10:03:53;28.90;90.20
29237;DHT22;16266;50.866;4.398;2023-05-14T10:06:23;28.00;93.10
29237;DHT22;16266;50.866;4.398;2023-05-14T10:08:53;28.10;91.50
29237;DHT22;16266;50.866;4.398;2023-05-14T10:11:24;28.00;92.10
29237;DHT22;16266;50.866;4.398;2023-05-14T10:14:25;28.60;91.90
29237;DHT22;16266;50.866;4.398;2023-05-14T10:16:52;30.20;85.90
29237;DHT22;16266;50.866;4.398;2023-05-14T10:19:22;31.20;75.90
29237;DHT22;16266;50.866;4.398;2023-05-14T10:21:55;31.10;71.40
29237;DHT22;16266;50.866;4.398;2023-05-14T10:24:21;31.50;70.20
29237;DHT22;16266;50.866;4.398;2023-05-14T10:26:48;31.50;71.90
29237;DHT22;16266;50.866;4.398;2023-05-14T10:29:14;29.80;75.00
29237;DHT22;16266;50.866;4.398;2023-05-14T10:34:31;33.00;69.20
29237;DHT22;16266;50.866;4.398;2023-05-14T10:37:01;34.80;60.30
29237;DHT22;16266;50.866;4.398;2023-05-14T10:39:56;34.70;57.50
29237;DHT22;16266;50.866;4.398;2023-05-14T10:42:26;33.00;55.70
29237;DHT22;16266;50.866;4.398;2023-05-14T10:47:21;35.10;56.00
29237;DHT22;16266;50.866;4.398;2023-05-14T10:49:47;36.40;48.10
29237;DHT22;16266;50.866;4.398;2023-05-14T10:52:16;35.60;49.40
29237;DHT22;16266;50.866;4.398;2023-05-14T10:57:21;34.60;47.60
29237;DHT22;16266;50.866;4.398;2023-05-14T10:59:49;34.60;48.30
29237;DHT22;16266;50.866;4.398;2023-05-14T11:02:21;34.90;46.70
29237;DHT22;16266;50.866;4.398;2023-05-14T11:05:00;34.50;44.90
29237;DHT22;16266;50.866;4.398;2023-05-14T11:07:32;34.60;48.10
29237;DHT22;16266;50.866;4.398;2023-05-14T11:10:06;34.50;46.20
29237;DHT22;16266;50.866;4.398;2023-05-14T11:12:33;33.60;45.20
29237;DHT22;16266;50.866;4.398;2023-05-14T11:15:01;31.60;50.70
29237;DHT22;16266;50.866;4.398;2023-05-14T11:17:28;32.50;51.20
29237;DHT22;16266;50.866;4.398;2023-05-14T11:19:59;33.40;48.10
29237;DHT22;16266;50.866;4.398;2023-05-14T11:22:25;32.40;47.80
29237;DHT22;16266;50.866;4.398;2023-05-14T11:24:51;32.00;52.70
29237;DHT22;16266;50.866;4.398;2023-05-14T11:27:18;31.50;51.10
29237;DHT22;16266;50.866;4.398;2023-05-14T11:29:46;30.70;52.60
29237;DHT22;16266;50.866;4.398;2023-05-14T11:32:13;30.40;55.80
29237;DHT22;16266;50.866;4.398;2023-05-14T11:34:40;31.70;54.70
29237;DHT22;16266;50.866;4.398;2023-05-14T11:37:06;32.50;52.50
29237;DHT22;16266;50.866;4.398;2023-05-14T11:39:33;33.40;51.60
29237;DHT22;16266;50.866;4.398;2023-05-14T11:42:07;34.20;52.70
29237;DHT22;16266;50.866;4.398;2023-05-14T11:44:34;34.90;47.60
29237;DHT22;16266;50.866;4.398;2023-05-14T11:46:59;32.80;51.60
29237;DHT22;16266;50.866;4.398;2023-05-14T11:49:29;32.30;52.00
29237;DHT22;16266;50.866;4.398;2023-05-14T11:52:00;32.50;51.70
29237;DHT22;16266;50.866;4.398;2023-05-14T11:54:26;34.40;50.90
29237;DHT22;16266;50.866;4.398;2023-05-14T11:56:57;35.20;44.30
29237;DHT22;16266;50.866;4.398;2023-05-14T11:59:24;35.70;45.90
29237;DHT22;16266;50.866;4.398;2023-05-14T12:01:51;36.10;43.90
29237;DHT22;16266;50.866;4.398;2023-05-14T12:04:18;36.00;45.40
29237;DHT22;16266;50.866;4.398;2023-05-14T12:06:47;36.10;42.50
29237;DHT22;16266;50.866;4.398;2023-05-14T12:09:18;36.10;42.90
29237;DHT22;16266;50.866;4.398;2023-05-14T12:11:44;35.60;45.00
29237;DHT22;16266;50.866;4.398;2023-05-14T12:14:18;36.40;45.00
29237;DHT22;16266;50.866;4.398;2023-05-14T12:16:45;36.90;44.80
29237;DHT22;16266;50.866;4.398;2023-05-14T12:19:13;37.00;42.10
29237;DHT22;16266;50.866;4.398;2023-05-14T12:21:42;37.20;41.60
29237;DHT22;16266;50.866;4.398;2023-05-14T12:24:18;37.00;40.90
29237;DHT22;16266;50.866;4.398;2023-05-14T12:26:48;36.80;41.80
29237;DHT22;16266;50.866;4.398;2023-05-14T12:29:14;38.30;40.50
29237;DHT22;16266;50.866;4.398;2023-05-14T12:31:48;38.40;37.90
29237;DHT22;16266;50.866;4.398;2023-05-14T12:34:15;36.30;39.50
29237;DHT22;16266;50.866;4.398;2023-05-14T12:36:44;35.70;41.20
29237;DHT22;16266;50.866;4.398;2023-05-14T12:39:10;35.60;41.80
29237;DHT22;16266;50.866;4.398;2023-05-14T12:41:36;35.00;41.50
29237;DHT22;16266;50.866;4.398;2023-05-14T12:44:05;33.00;43.80
29237;DHT22;16266;50.866;4.398;2023-05-14T12:46:32;32.20;47.40
29237;DHT22;16266;50.866;4.398;2023-05-14T12:48:58;32.70;47.60
29237;DHT22;16266;50.866;4.398;2023-05-14T12:51:24;33.80;46.10
29237;DHT22;16266;50.866;4.398;2023-05-14T12:53:50;33.00;46.80
29237;DHT22;16266;50.866;4.398;2023-05-14T12:56:17;31.90;50.70
29237;DHT22;16266;50.866;4.398;2023-05-14T12:58:43;32.30;49.40
29237;DHT22;16266;50.866;4.398;2023-05-14T13:01:11;31.60;48.70
29237;DHT22;16266;50.866;4.398;2023-05-14T13:03:36;31.40;50.40
29237;DHT22;16266;50.866;4.398;2023-05-14T13:06:02;31.40;51.70
29237;DHT22;16266;50.866;4.398;2023-05-14T13:08:28;31.00;53.70
29237;DHT22;16266;50.866;4.398;2023-05-14T13:10:54;31.00;55.60
29237;DHT22;16266;50.866;4.398;2023-05-14T13:13:21;30.40;53.30
29237;DHT22;16266;50.866;4.398;2023-05-14T13:15:46;30.60;55.80
29237;DHT22;16266;50.866;4.398;2023-05-14T13:18:13;31.00;52.70
29237;DHT22;16266;50.866;4.398;2023-05-14T13:20:39;31.20;51.70
29237;DHT22;16266;50.866;4.398;2023-05-14T13:23:05;31.80;52.10
29237;DHT22;16266;50.866;4.398;2023-05-14T13:25:31;32.20;52.30
29237;DHT22;16266;50.866;4.398;2023-05-14T13:27:56;31.40;53.80
29237;DHT22;16266;50.866;4.398;2023-05-14T13:30:22;30.60;55.10
29237;DHT22;16266;50.866;4.398;2023-05-14T13:32:48;30.30;56.00
29237;DHT22;16266;50.866;4.398;2023-05-14T13:35:13;30.60;57.30
29237;DHT22;16266;50.866;4.398;2023-05-14T13:37:39;30.70;54.70
29237;DHT22;16266;50.866;4.398;2023-05-14T13:40:05;30.80;56.00
29237;DHT22;16266;50.866;4.398;2023-05-14T13:42:35;31.20;55.60
29237;DHT22;16266;50.866;4.398;2023-05-14T13:45:01;29.90;53.30
29237;DHT22;16266;50.866;4.398;2023-05-14T13:47:28;29.00;55.60
29237;DHT22;16266;50.866;4.398;2023-05-14T13:49:54;29.50;58.60
29237;DHT22;16266;50.866;4.398;2023-05-14T13:52:20;30.00;57.60
29237;DHT22;16266;50.866;4.398;2023-05-14T13:54:47;29.90;55.90
29237;DHT22;16266;50.866;4.398;2023-05-14T13:57:12;29.90;57.70
29237;DHT22;16266;50.866;4.398;2023-05-14T13:59:38;29.60;57.90
29237;DHT22;16266;50.866;4.398;2023-05-14T14:02:04;29.60;57.80
29237;DHT22;16266;50.866;4.398;2023-05-14T14:04:30;28.70;61.00
29237;DHT22;16266;50.866;4.398;2023-05-14T14:06:56;28.50;63.80
29237;DHT22;16266;50.866;4.398;2023-05-14T14:09:22;27.90;64.00
29237;DHT22;16266;50.866;4.398;2023-05-14T14:11:48;27.50;65.10
29237;DHT22;16266;50.866;4.398;2023-05-14T14:14:15;27.20;65.70
29237;DHT22;16266;50.866;4.398;2023-05-14T14:16:41;27.50;67.70
29237;DHT22;16266;50.866;4.398;2023-05-14T14:19:07;27.60;68.60
29237;DHT22;16266;50.866;4.398;2023-05-14T14:21:32;27.80;69.50
29237;DHT22;16266;50.866;4.398;2023-05-14T14:24:00;28.10;66.60
29237;DHT22;16266;50.866;4.398;2023-05-14T14:26:26;27.70;65.50
29237;DHT22;16266;50.866;4.398;2023-05-14T14:28:52;26.90;73.40
29237;DHT22;16266;50.866;4.398;2023-05-14T14:31:19;26.80;74.20
29237;DHT22;16266;50.866;4.398;2023-05-14T14:33:45;26.90;76.40
29237;DHT22;16266;50.866;4.398;2023-05-14T14:36:10;26.70;75.70
29237;DHT22;16266;50.866;4.398;2023-05-14T14:38:36;26.90;78.10
29237;DHT22;16266;50.866;4.398;2023-05-14T14:41:04;27.40;73.60
29237;DHT22;16266;50.866;4.398;2023-05-14T14:43:31;27.50;70.20
29237;DHT22;16266;50.866;4.398;2023-05-14T14:45:57;27.50;71.60
29237;DHT22;16266;50.866;4.398;2023-05-14T14:48:28;27.40;74.10
29237;DHT22;16266;50.866;4.398;2023-05-14T14:51:05;27.40;71.10
29237;DHT22;16266;50.866;4.398;2023-05-14T14:53:31;26.80;73.70
29237;DHT22;16266;50.866;4.398;2023-05-14T14:55:57;25.80;76.40
29237;DHT22;16266;50.866;4.398;2023-05-14T14:58:24;24.80;83.50
29237;DHT22;16266;50.866;4.398;2023-05-14T15:00:52;24.80;88.90
29237;DHT22;16266;50.866;4.398;2023-05-14T15:03:18;25.00;86.30
29237;DHT22;16266;50.866;4.398;2023-05-14T15:05:44;25.30;85.80
29237;DHT22;16266;50.866;4.398;2023-05-14T15:08:10;25.80;87.40
29237;DHT22;16266;50.866;4.398;2023-05-14T15:10:36;25.70;82.50
29237;DHT22;16266;50.866;4.398;2023-05-14T15:13:04;25.30;86.30
29237;DHT22;16266;50.866;4.398;2023-05-14T15:15:32;25.40;86.70
29237;DHT22;16266;50.866;4.398;2023-05-14T15:17:58;25.60;87.00
29237;DHT22;16266;50.866;4.398;2023-05-14T15:20:24;25.50;88.20
29237;DHT22;16266;50.866;4.398;2023-05-14T15:22:49;24.70;92.60
29237;DHT22;16266;50.866;4.398;2023-05-14T15:25:20;24.90;94.70
29237;DHT22;16266;50.866;4.398;2023-05-14T15:27:46;25.00;93.80
29237;DHT22;16266;50.866;4.398;2023-05-14T15:30:12;24.60;94.80
29237;DHT22;16266;50.866;4.398;2023-05-14T15:32:38;24.50;95.90
29237;DHT22;16266;50.866;4.398;2023-05-14T15:35:04;24.10;97.60
29237;DHT22;16266;50.866;4.398;2023-05-14T15:37:38;24.10;99.20
29237;DHT22;16266;50.866;4.398;2023-05-14T15:40:05;23.40;99.90